» Metar & Tafor

30 November 2018
METAR
Pukul :
Isi :

METAR WAGI 210900Z 00000KT 8000 TS FEW011CB BKN012 32/25 Q1009 RMK CB TO E=


30 Agustus 2018
TAFOR
Pukul :
Isi :

TAF WAGI 200500Z 2006/2018 00000KT 9000 BK011 TEMPO 2006/2009 3000 TSRA FEW011CB BKN011=


Hal: << First | < Prev | 1 | Next > | Last >>